Time;durP1;ratioP1;P1;durP2;ratioP2;P2;SDS_P1;SDS_P2;PMS_P1;PMS_P2;Temp;Humidity;BMP_temperature;BMP_pressure;BME280_temperature;BME280_humidity;BME280_pressure;Samples;Min_cycle;Max_cycle;Signal;HPM_P1;HPM_P2
2022/10/15 00:02:24;;;;;;;0.50;0.50;;;13.00;99.90;;;;;;4967267;28;20040;-83
2022/10/15 00:05:02;;;;;;;0.70;0.70;;;13.10;99.90;;;;;;4980906;28;20044;-84
2022/10/15 00:08:04;;;;;;;0.50;0.50;;;12.90;99.90;;;;;;4973263;28;20101;-85
2022/10/15 00:10:30;;;;;;;0.50;0.50;;;12.90;99.90;;;;;;4979987;28;20084;-84
2022/10/15 00:13:02;;;;;;;0.60;0.60;;;12.90;99.90;;;;;;4982587;28;20051;-85
2022/10/15 00:15:31;;;;;;;0.50;0.50;;;13.00;99.90;;;;;;4989663;28;20056;-86
2022/10/15 00:18:14;;;;;;;0.50;0.50;;;12.80;99.90;;;;;;5012291;28;20608;-85
2022/10/15 00:21:29;;;;;;;0.50;0.50;;;12.90;99.90;;;;;;4975229;28;20442;-85
2022/10/15 00:24:24;;;;;;;0.60;0.60;;;12.90;99.90;;;;;;4994096;28;20040;-85
2022/10/15 00:26:55;;;;;;;0.50;0.50;;;12.80;99.90;;;;;;4992518;28;20782;-86
2022/10/15 00:29:24;;;;;;;0.50;0.50;;;12.90;99.90;;;;;;4968475;28;20244;-86
2022/10/15 00:31:58;;;;;;;0.50;0.50;;;12.90;99.90;;;;;;4996679;28;20910;-86
2022/10/15 00:34:40;;;;;;;0.50;0.50;;;12.80;99.90;;;;;;4997247;28;20128;-87
2022/10/15 00:37:16;;;;;;;0.50;0.50;;;12.80;99.90;;;;;;4981209;28;20044;-86
2022/10/15 00:39:48;;;;;;;0.50;0.50;;;12.90;99.90;;;;;;4982400;28;20040;-85
2022/10/15 00:42:20;;;;;;;0.50;0.50;;;12.90;99.90;;;;;;4999826;28;20446;-87
2022/10/15 00:44:57;;;;;;;0.50;0.50;;;12.90;99.90;;;;;;4989211;28;20639;-85
2022/10/15 00:47:29;;;;;;;0.50;0.50;;;12.80;99.90;;;;;;4977863;28;20054;-85
2022/10/15 00:50:23;;;;;;;2.58;2.47;;;12.70;99.90;;;;;;4976420;28;20043;-86
2022/10/15 00:53:02;;;;;;;0.60;0.60;;;12.70;99.90;;;;;;4883219;28;20809;-86
2022/10/15 00:55:51;;;;;;;0.50;0.50;;;12.70;99.90;;;;;;4996004;28;21067;-85
2022/10/15 00:58:26;;;;;;;0.50;0.50;;;12.70;99.90;;;;;;4959164;28;20427;-84
2022/10/15 01:00:59;;;;;;;0.50;0.50;;;12.60;99.90;;;;;;4988716;28;20048;-86
2022/10/15 01:03:35;;;;;;;0.50;0.50;;;12.60;99.90;;;;;;4995012;28;20044;-84
2022/10/15 01:06:16;;;;;;;0.50;0.50;;;12.70;99.90;;;;;;4991042;28;20174;-85
2022/10/15 01:08:45;;;;;;;0.50;0.50;;;12.70;99.90;;;;;;4981170;28;20059;-87
2022/10/15 01:11:33;;;;;;;0.50;0.50;;;12.70;99.90;;;;;;4964018;28;20048;-87
2022/10/15 01:14:50;;;;;;;0.50;0.50;;;12.50;99.90;;;;;;5014674;28;20067;-86
2022/10/15 01:17:28;;;;;;;0.50;0.50;;;12.60;99.90;;;;;;4949206;28;20400;-87
2022/10/15 01:20:06;;;;;;;0.50;0.50;;;12.70;99.90;;;;;;4978122;28;20153;-86
2022/10/15 01:23:09;;;;;;;0.50;0.50;;;12.70;99.90;;;;;;4980663;28;20266;-85
2022/10/15 01:25:44;;;;;;;0.50;0.50;;;12.60;99.90;;;;;;4977070;28;20047;-85
2022/10/15 01:28:50;;;;;;;0.50;0.50;;;12.70;99.90;;;;;;4978657;28;20141;-86
2022/10/15 01:31:56;;;;;;;0.50;0.50;;;12.70;99.90;;;;;;4974817;28;20086;-85
2022/10/15 01:34:46;;;;;;;0.50;0.50;;;12.60;99.90;;;;;;4980113;28;20062;-85
2022/10/15 01:37:44;;;;;;;0.50;0.50;;;12.60;99.90;;;;;;4967152;28;20323;-87
2022/10/15 01:40:30;;;;;;;0.50;0.50;;;12.60;99.90;;;;;;4975164;28;20485;-85
2022/10/15 01:42:59;;;;;;;0.50;0.50;;;12.70;99.90;;;;;;4971722;28;21167;-83
2022/10/15 01:45:45;;;;;;;0.50;0.50;;;12.70;99.90;;;;;;4986747;28;20076;-85
2022/10/15 01:48:17;;;;;;;0.52;0.52;;;12.60;99.90;;;;;;4994087;28;20040;-86
2022/10/15 01:51:03;;;;;;;0.50;0.50;;;12.60;99.90;;;;;;4971781;28;20954;-86
2022/10/15 01:53:33;;;;;;;0.50;0.50;;;12.60;99.90;;;;;;4980168;28;20074;-85
2022/10/15 01:56:17;;;;;;;0.50;0.50;;;12.60;99.90;;;;;;4977079;28;20835;-84
2022/10/15 01:58:52;;;;;;;0.50;0.50;;;12.50;99.90;;;;;;4987471;28;20064;-86
2022/10/15 02:01:18;;;;;;;0.50;0.50;;;12.50;99.90;;;;;;4970169;28;20393;-85
2022/10/15 02:03:55;;;;;;;0.50;0.50;;;12.40;99.90;;;;;;4969770;28;20361;-85
2022/10/15 02:06:39;;;;;;;0.50;0.50;;;12.60;99.90;;;;;;4955989;28;20041;-84
2022/10/15 02:09:41;;;;;;;0.50;0.50;;;12.50;99.90;;;;;;4976362;28;20056;-86
2022/10/15 02:12:25;;;;;;;0.60;0.60;;;12.50;99.90;;;;;;5016195;28;20048;-85
2022/10/15 02:15:10;;;;;;;;;;;12.60;99.90;;;;;;4994822;28;20048;-85
2022/10/15 02:17:49;;;;;;;0.50;0.50;;;12.40;99.90;;;;;;4994737;28;19924;-86
2022/10/15 02:21:00;;;;;;;0.57;0.57;;;12.50;99.90;;;;;;4993807;28;20336;-86
2022/10/15 02:24:25;;;;;;;0.50;0.50;;;12.40;99.90;;;;;;4975791;28;20045;-85
2022/10/15 02:27:14;;;;;;;0.60;0.60;;;12.40;99.90;;;;;;4967248;28;20052;-87
2022/10/15 02:29:49;;;;;;;0.50;0.50;;;12.40;99.90;;;;;;4969865;28;20798;-86
2022/10/15 02:32:25;;;;;;;0.50;0.50;;;12.40;99.90;;;;;;4987964;28;20388;-84
2022/10/15 02:34:52;;;;;;;0.60;0.60;;;12.40;99.90;;;;;;4974317;28;20047;-85
2022/10/15 02:37:38;;;;;;;0.50;0.50;;;12.30;99.90;;;;;;4979413;28;20098;-84
2022/10/15 02:40:07;;;;;;;0.50;0.50;;;12.40;99.90;;;;;;5004769;28;20501;-84
2022/10/15 02:42:43;;;;;;;0.50;0.50;;;12.30;99.90;;;;;;4986323;28;20828;-86
2022/10/15 02:45:33;;;;;;;0.50;0.50;;;12.20;99.90;;;;;;4959171;28;20071;-85
2022/10/15 02:47:59;;;;;;;0.50;0.50;;;12.30;99.90;;;;;;4982377;28;20130;-84
2022/10/15 02:50:24;;;;;;;0.50;0.50;;;12.10;99.90;;;;;;5012693;28;20055;-84
2022/10/15 02:52:53;;;;;;;0.50;0.50;;;12.10;99.90;;;;;;4983509;28;20349;-83
2022/10/15 02:55:45;;;;;;;0.50;0.50;;;12.10;99.90;;;;;;5006252;28;20059;-85
2022/10/15 02:58:08;;;;;;;0.50;0.50;;;12.10;99.90;;;;;;4999197;28;20128;-85
2022/10/15 03:00:39;;;;;;;0.50;0.50;;;12.10;99.90;;;;;;4992444;28;20155;-85
2022/10/15 03:03:08;;;;;;;0.50;0.50;;;12.10;99.90;;;;;;4984205;28;20067;-86
2022/10/15 03:05:34;;;;;;;0.50;0.50;;;12.00;99.90;;;;;;4978961;28;20086;-85
2022/10/15 03:08:04;;;;;;;0.55;0.55;;;12.10;99.90;;;;;;4995658;28;20366;-85
2022/10/15 03:10:35;;;;;;;0.50;0.50;;;12.10;99.90;;;;;;4968649;28;20063;-84
2022/10/15 03:13:11;;;;;;;0.50;0.50;;;12.10;99.90;;;;;;4998498;28;20079;-85
2022/10/15 03:15:40;;;;;;;0.50;0.50;;;12.10;99.90;;;;;;4983339;28;20052;-85
2022/10/15 03:18:06;;;;;;;0.60;0.60;;;12.10;99.90;;;;;;4983507;28;20801;-86
2022/10/15 03:20:32;;;;;;;0.50;0.50;;;12.10;99.90;;;;;;5017920;28;20044;-85
2022/10/15 03:23:01;;;;;;;0.50;0.50;;;12.20;99.90;;;;;;4973236;28;20309;-85
2022/10/15 03:25:48;;;;;;;0.50;0.50;;;12.20;99.90;;;;;;5010184;28;20056;-85
2022/10/15 03:28:16;;;;;;;0.60;0.60;;;12.10;99.90;;;;;;4996255;28;20052;-85
2022/10/15 03:30:45;;;;;;;0.50;0.50;;;12.20;99.90;;;;;;4976886;28;20048;-85
2022/10/15 03:33:17;;;;;;;0.60;0.60;;;12.20;99.90;;;;;;4986289;28;20055;-86
2022/10/15 03:35:49;;;;;;;0.50;0.50;;;12.10;99.90;;;;;;4989396;28;20059;-85
2022/10/15 03:38:29;;;;;;;0.55;0.55;;;12.20;99.90;;;;;;4980749;28;20055;-86
2022/10/15 03:41:03;;;;;;;0.50;0.50;;;12.10;99.90;;;;;;4967702;28;20108;-86
2022/10/15 03:43:56;;;;;;;0.50;0.50;;;12.30;99.90;;;;;;4982116;28;20226;-86
2022/10/15 03:47:02;;;;;;;0.50;0.50;;;12.10;99.90;;;;;;5004568;28;20472;-86
2022/10/15 03:49:34;;;;;;;0.50;0.50;;;12.10;99.90;;;;;;4997656;28;20058;-86
2022/10/15 03:54:58;;;;;;;0.50;0.50;;;12.00;99.90;;;;;;4988749;28;20055;-85
2022/10/15 03:57:29;;;;;;;0.50;0.50;;;12.00;99.90;;;;;;4963810;28;20418;-86
2022/10/15 04:00:36;;;;;;;0.60;0.60;;;12.00;99.90;;;;;;5003350;28;20059;-87
2022/10/15 04:03:11;;;;;;;0.50;0.50;;;12.00;99.90;;;;;;5003085;28;20052;-86
2022/10/15 04:05:48;;;;;;;0.50;0.50;;;12.00;99.90;;;;;;4986046;28;20044;-87
2022/10/15 04:08:22;;;;;;;0.50;0.50;;;12.00;99.90;;;;;;4999220;28;20118;-86
2022/10/15 04:11:01;;;;;;;0.50;0.50;;;12.10;99.90;;;;;;4995909;28;20048;-85
2022/10/15 04:13:32;;;;;;;0.50;0.50;;;12.20;99.90;;;;;;4998379;28;20062;-84
2022/10/15 04:16:09;;;;;;;0.50;0.50;;;12.10;99.90;;;;;;4982470;28;20109;-86
2022/10/15 04:18:35;;;;;;;0.50;0.50;;;12.10;99.90;;;;;;4981988;28;20754;-85
2022/10/15 04:21:01;;;;;;;1.20;0.60;;;12.00;99.90;;;;;;4980737;28;20105;-84
2022/10/15 04:23:36;;;;;;;0.50;0.50;;;12.00;99.90;;;;;;5005016;28;20051;-86
2022/10/15 04:26:08;;;;;;;0.50;0.50;;;12.00;99.90;;;;;;5001752;28;20048;-86
2022/10/15 04:31:36;;;;;;;0.50;0.50;;;12.00;99.90;;;;;;4993143;28;20379;-86
2022/10/15 04:34:05;;;;;;;0.60;0.60;;;12.00;99.90;;;;;;4983884;28;20051;-85
2022/10/15 04:36:31;;;;;;;0.52;0.52;;;12.00;99.90;;;;;;4980254;28;20044;-84
2022/10/15 04:39:06;;;;;;;0.50;0.50;;;11.90;99.90;;;;;;5001993;28;20109;-86
2022/10/15 04:41:38;;;;;;;0.50;0.50;;;11.80;99.90;;;;;;4995567;28;20052;-86
2022/10/15 04:44:07;;;;;;;0.50;0.50;;;11.80;99.90;;;;;;4962747;28;22576;-85
2022/10/15 04:46:47;;;;;;;0.50;0.50;;;11.70;99.90;;;;;;4985964;28;20100;-84
2022/10/15 04:49:13;;;;;;;0.50;0.50;;;11.80;99.90;;;;;;4984342;28;20084;-85
2022/10/15 04:51:41;;;;;;;0.50;0.50;;;11.80;99.90;;;;;;4979056;28;20063;-86
2022/10/15 04:54:38;;;;;;;0.50;0.50;;;11.70;99.90;;;;;;5011566;28;20076;-85
2022/10/15 04:57:07;;;;;;;0.50;0.50;;;11.60;99.90;;;;;;4975326;28;20403;-85
2022/10/15 04:59:53;;;;;;;0.50;0.50;;;11.50;99.90;;;;;;4965036;28;20075;-86
2022/10/15 05:02:35;;;;;;;0.50;0.50;;;11.60;99.90;;;;;;4963478;28;20052;-84
2022/10/15 05:05:06;;;;;;;0.50;0.50;;;11.70;99.90;;;;;;4977500;28;20399;-85
2022/10/15 05:07:40;;;;;;;0.50;0.50;;;11.50;99.90;;;;;;4973535;28;20055;-85
2022/10/15 05:10:16;;;;;;;0.50;0.50;;;11.60;99.90;;;;;;4973035;28;20250;-85
2022/10/15 05:12:51;;;;;;;0.50;0.50;;;11.60;99.90;;;;;;4957112;28;20040;-85
2022/10/15 05:15:33;;;;;;;0.50;0.50;;;11.50;99.90;;;;;;4969087;28;20058;-85
2022/10/15 05:18:21;;;;;;;0.50;0.50;;;11.40;99.90;;;;;;4971794;28;20041;-86
2022/10/15 05:20:50;;;;;;;0.50;0.50;;;11.40;99.90;;;;;;4962783;28;20051;-86
2022/10/15 05:23:16;;;;;;;0.60;0.60;;;11.40;99.90;;;;;;4956364;28;20084;-84
2022/10/15 05:25:50;;;;;;;0.57;0.57;;;11.40;99.90;;;;;;4973463;28;20542;-85
2022/10/15 05:28:19;;;;;;;0.50;0.50;;;11.30;99.90;;;;;;4943237;28;20099;-85
2022/10/15 05:31:06;;;;;;;0.60;0.60;;;11.40;99.90;;;;;;4958756;28;20056;-85
2022/10/15 05:33:33;;;;;;;0.50;0.50;;;11.40;99.90;;;;;;4975117;28;20751;-84
2022/10/15 05:36:13;;;;;;;0.50;0.50;;;11.40;99.90;;;;;;4981418;28;20048;-85
2022/10/15 05:38:44;;;;;;;0.60;0.60;;;11.50;99.90;;;;;;4977404;28;20080;-85
2022/10/15 05:41:10;;;;;;;0.57;0.57;;;11.60;99.90;;;;;;4978236;28;20086;-84
2022/10/15 05:43:45;;;;;;;0.60;0.60;;;11.50;99.90;;;;;;4962599;28;20044;-85
2022/10/15 05:46:24;;;;;;;0.60;0.60;;;11.60;99.90;;;;;;4977573;28;20971;-85
2022/10/15 05:48:55;;;;;;;0.50;0.50;;;11.60;99.90;;;;;;4965216;28;20067;-86
2022/10/15 05:51:37;;;;;;;0.50;0.50;;;11.70;99.90;;;;;;4950138;28;20067;-86
2022/10/15 05:54:09;;;;;;;0.50;0.50;;;11.80;99.90;;;;;;4946857;28;20044;-86
2022/10/15 05:56:46;;;;;;;0.50;0.50;;;11.80;99.90;;;;;;4982535;28;20141;-86
2022/10/15 05:59:21;;;;;;;0.60;0.60;;;11.90;99.90;;;;;;4955560;28;20056;-86
2022/10/15 06:01:56;;;;;;;0.60;0.60;;;11.90;99.90;;;;;;4985792;28;20369;-87
2022/10/15 06:04:28;;;;;;;0.60;0.60;;;12.00;99.90;;;;;;4982238;28;20048;-85
2022/10/15 06:07:00;;;;;;;0.60;0.60;;;12.00;99.90;;;;;;4972274;28;20962;-86
2022/10/15 06:09:27;;;;;;;0.50;0.50;;;12.10;99.90;;;;;;4979369;28;20063;-84
2022/10/15 06:12:08;;;;;;;0.60;0.60;;;12.10;99.90;;;;;;4984563;28;20575;-86
2022/10/15 06:15:08;;;;;;;0.50;0.50;;;12.10;99.90;;;;;;4980163;28;20048;-87
2022/10/15 06:17:46;;;;;;;;;;;12.10;99.90;;;;;;4984102;28;20056;-84
2022/10/15 06:20:21;;;;;;;0.50;0.50;;;12.20;99.90;;;;;;4973462;28;19920;-87
2022/10/15 06:22:49;;;;;;;0.70;0.70;;;12.20;99.90;;;;;;4943637;28;20240;-83
2022/10/15 06:25:23;;;;;;;0.60;0.60;;;12.20;99.90;;;;;;4994225;28;20545;-86
2022/10/15 06:27:52;;;;;;;0.60;0.60;;;12.30;99.90;;;;;;4966285;28;20087;-84
2022/10/15 06:30:21;;;;;;;0.60;0.60;;;12.30;99.90;;;;;;4996942;28;20052;-83
2022/10/15 06:33:06;;;;;;;;;;;;;;;;;;;;;
2022/10/15 06:35:34;;;;;;;0.60;0.60;;;12.40;99.90;;;;;;4993351;28;20454;-84
2022/10/15 06:38:23;;;;;;;0.50;0.50;;;12.40;99.90;;;;;;4980269;28;20856;-85
2022/10/15 06:40:54;;;;;;;0.50;0.50;;;12.50;99.90;;;;;;4973503;28;20092;-85
2022/10/15 06:43:23;;;;;;;;;;;12.60;99.90;;;;;;4981616;28;20802;-83
2022/10/15 06:45:49;;;;;;;0.60;0.60;;;12.50;99.90;;;;;;4960215;28;19971;-84
2022/10/15 06:48:18;;;;;;;0.60;0.60;;;12.60;99.90;;;;;;4973048;28;20937;-86
2022/10/15 06:50:58;;;;;;;0.50;0.50;;;12.60;99.90;;;;;;5000473;28;20139;-86
2022/10/15 06:53:43;;;;;;;0.50;0.50;;;12.70;99.90;;;;;;4992175;28;20043;-87
2022/10/15 06:56:18;;;;;;;0.50;0.50;;;12.70;99.90;;;;;;5003656;28;20051;-86
2022/10/15 06:58:51;;;;;;;0.50;0.50;;;12.70;99.90;;;;;;5002570;28;20071;-85
2022/10/15 07:04:30;;;;;;;0.50;0.50;;;12.70;99.90;;;;;;4994602;28;20055;-86
2022/10/15 07:07:16;;;;;;;0.50;0.50;;;12.80;99.90;;;;;;4990508;28;20883;-86
2022/10/15 07:09:46;;;;;;;0.50;0.50;;;12.80;99.90;;;;;;4994195;28;20062;-89
2022/10/15 07:13:00;;;;;;;;;;;;;;;;;;;;;
2022/10/15 07:15:30;;;;;;;0.50;0.50;;;13.00;99.90;;;;;;4989710;28;20078;-88
2022/10/15 07:18:05;;;;;;;0.50;0.50;;;12.90;99.90;;;;;;4976033;28;20039;-86
2022/10/15 07:20:52;;;;;;;0.50;0.50;;;13.10;99.90;;;;;;4994642;28;20040;-87
2022/10/15 07:23:36;;;;;;;0.50;0.50;;;13.20;99.90;;;;;;4990571;28;20260;-84
2022/10/15 07:26:41;;;;;;;0.50;0.50;;;13.30;99.90;;;;;;5006614;28;20052;-91
2022/10/15 07:29:38;;;;;;;0.50;0.50;;;13.40;99.90;;;;;;4996612;28;20594;-86
2022/10/15 07:32:18;;;;;;;0.50;0.50;;;13.50;99.90;;;;;;4973077;28;20220;-86
2022/10/15 07:34:53;;;;;;;0.50;0.50;;;13.50;99.90;;;;;;4999797;28;20376;-86
2022/10/15 07:37:20;;;;;;;0.50;0.50;;;13.70;99.90;;;;;;4972989;28;20116;-87
2022/10/15 07:39:55;;;;;;;0.50;0.50;;;13.80;99.90;;;;;;4958413;28;20048;-86
2022/10/15 07:42:40;;;;;;;;;;;;;;;;;;;;;
2022/10/15 07:45:10;;;;;;;0.50;0.50;;;13.80;99.90;;;;;;5001974;28;20051;-87
2022/10/15 07:47:43;;;;;;;0.50;0.50;;;13.90;99.90;;;;;;4996445;28;20251;-85
2022/10/15 07:50:12;;;;;;;0.50;0.50;;;14.00;99.90;;;;;;4975020;28;20078;-86
2022/10/15 07:53:11;;;;;;;0.50;0.50;;;14.10;99.90;;;;;;5014465;28;20069;-88
2022/10/15 07:56:05;;;;;;;0.50;0.50;;;14.10;99.90;;;;;;4971386;28;20044;-87
2022/10/15 07:58:33;;;;;;;0.50;0.50;;;14.10;99.90;;;;;;4982720;28;20936;-87
2022/10/15 08:01:05;;;;;;;0.50;0.50;;;14.10;99.90;;;;;;5002036;28;20051;-86
2022/10/15 08:03:43;;;;;;;0.50;0.50;;;14.10;99.90;;;;;;4987134;28;20070;-87
2022/10/15 08:06:16;;;;;;;0.60;0.60;;;14.30;99.90;;;;;;4994195;28;20101;-90
2022/10/15 08:08:48;;;;;;;0.50;0.50;;;14.40;99.90;;;;;;5002762;28;20048;-88
2022/10/15 08:11:26;;;;;;;0.60;0.60;;;14.60;99.90;;;;;;4985460;28;20215;-87
2022/10/15 08:13:55;;;;;;;0.50;0.50;;;14.70;99.90;;;;;;4987652;28;20422;-86
2022/10/15 08:16:32;;;;;;;0.50;0.50;;;14.70;99.90;;;;;;4975126;28;20055;-88
2022/10/15 08:19:24;;;;;;;0.50;0.50;;;14.70;99.90;;;;;;4984047;28;20098;-87
2022/10/15 08:22:11;;;;;;;0.50;0.50;;;14.70;99.90;;;;;;4951315;28;20235;-88
2022/10/15 08:24:43;;;;;;;0.50;0.50;;;14.70;99.90;;;;;;4988820;28;20048;-85
2022/10/15 08:27:09;;;;;;;0.50;0.50;;;14.70;99.90;;;;;;4960758;28;20147;-87
2022/10/15 08:29:35;;;;;;;0.50;0.50;;;14.60;99.90;;;;;;4982752;28;20074;-85
2022/10/15 08:32:07;;;;;;;0.50;0.50;;;14.60;99.90;;;;;;4997063;28;20806;-86
2022/10/15 08:34:56;;;;;;;0.50;0.50;;;14.70;99.90;;;;;;4966585;28;20386;-87
2022/10/15 08:37:33;;;;;;;0.50;0.50;;;14.70;99.90;;;;;;4981960;28;20044;-89
2022/10/15 08:40:02;;;;;;;0.55;0.55;;;14.60;99.90;;;;;;4981615;28;20953;-84
2022/10/15 08:42:43;;;;;;;0.50;0.50;;;14.60;99.90;;;;;;4987692;28;20066;-87
2022/10/15 08:45:47;;;;;;;;;;;;;;;;;;;;;
2022/10/15 08:48:59;;;;;;;0.50;0.50;;;14.50;99.90;;;;;;4967640;28;20063;-86
2022/10/15 08:55:47;;;;;;;0.50;0.50;;;14.40;99.90;;;;;;5018412;28;20465;-94
2022/10/15 08:59:09;;;;;;;0.50;0.50;;;14.30;99.90;;;;;;4989740;28;20598;-86
2022/10/15 09:02:02;;;;;;;0.50;0.50;;;14.20;99.90;;;;;;4990463;28;20252;-95
2022/10/15 09:05:02;;;;;;;0.50;0.50;;;14.10;99.90;;;;;;4951993;28;20915;-85
2022/10/15 09:07:41;;;;;;;0.50;0.50;;;14.00;99.90;;;;;;4940178;28;20049;-85
2022/10/15 09:10:32;;;;;;;0.50;0.50;;;13.90;99.90;;;;;;4922994;28;20111;-89
2022/10/15 09:13:14;;;;;;;0.50;0.50;;;13.90;99.90;;;;;;4914545;28;20116;-85
2022/10/15 09:16:07;;;;;;;0.50;0.50;;;13.80;99.90;;;;;;4918092;28;20053;-88
2022/10/15 09:19:00;;;;;;;0.50;0.50;;;13.90;99.90;;;;;;4928172;28;20067;-87
2022/10/15 09:21:34;;;;;;;0.50;0.50;;;13.90;99.90;;;;;;4894421;28;20057;-86
2022/10/15 09:24:17;;;;;;;0.50;0.50;;;13.90;99.90;;;;;;4927629;28;20068;-85
2022/10/15 09:27:35;;;;;;;0.50;0.50;;;13.90;99.90;;;;;;4931005;28;20110;-85
2022/10/15 09:30:34;;;;;;;0.50;0.50;;;14.00;99.90;;;;;;4950301;28;20080;-88
2022/10/15 09:33:15;;;;;;;0.50;0.50;;;13.90;99.90;;;;;;4932750;28;20339;-89
2022/10/15 09:36:21;;;;;;;0.60;0.60;;;13.90;99.90;;;;;;4937105;28;20099;-90
2022/10/15 09:39:32;;;;;;;0.60;0.60;;;14.00;99.90;;;;;;4935464;28;20124;-89
2022/10/15 09:42:04;;;;;;;0.50;0.50;;;14.10;99.90;;;;;;4951647;28;20056;-91
2022/10/15 09:44:36;;;;;;;0.60;0.60;;;14.10;99.90;;;;;;4997989;28;20048;-84
2022/10/15 09:47:25;;;;;;;0.50;0.50;;;14.20;99.90;;;;;;4977298;28;20640;-85
2022/10/15 09:49:51;;;;;;;0.50;0.50;;;14.20;99.90;;;;;;4993054;28;20075;-82
2022/10/15 09:52:57;;;;;;;0.50;0.50;;;14.10;99.90;;;;;;4973849;28;20074;-87
2022/10/15 09:56:20;;;;;;;0.50;0.50;;;14.20;99.90;;;;;;4979152;28;20052;-87
2022/10/15 09:59:26;;;;;;;0.50;0.50;;;14.40;99.90;;;;;;4910076;28;20539;-88
2022/10/15 10:02:14;;;;;;;0.50;0.50;;;14.50;99.90;;;;;;4889117;28;20478;-87
2022/10/15 10:05:25;;;;;;;0.50;0.50;;;14.60;99.90;;;;;;4891074;28;20097;-87
2022/10/15 10:08:30;;;;;;;;;;;;;;;;;;;;;
2022/10/15 10:11:10;;;;;;;0.50;0.50;;;15.10;99.90;;;;;;4887950;28;20125;-85
2022/10/15 10:14:04;;;;;;;0.50;0.50;;;15.10;99.90;;;;;;4928910;28;20053;-87
2022/10/15 10:16:32;;;;;;;0.50;0.50;;;15.20;99.90;;;;;;4974565;28;20052;-85
2022/10/15 10:19:12;;;;;;;0.50;0.50;;;15.30;99.90;;;;;;4948988;28;20080;-86
2022/10/15 10:22:15;;;;;;;0.50;0.50;;;15.50;99.90;;;;;;4978311;28;20040;-91
2022/10/15 10:24:50;;;;;;;0.50;0.50;;;15.80;99.90;;;;;;4961129;28;20457;-85
2022/10/15 10:27:31;;;;;;;0.50;0.50;;;15.80;99.90;;;;;;4976623;28;20040;-84
2022/10/15 10:30:22;;;;;;;;;;;;;;;;;;;;;
2022/10/15 10:33:05;;;;;;;0.50;0.50;;;15.60;99.90;;;;;;4981656;28;20400;-88
2022/10/15 10:36:08;;;;;;;0.50;0.50;;;15.70;99.90;;;;;;4968025;28;20224;-86
2022/10/15 10:39:00;;;;;;;0.50;0.50;;;16.00;99.90;;;;;;4999023;28;20052;-87
2022/10/15 10:41:52;;;;;;;0.50;0.50;;;16.50;99.90;;;;;;4979122;28;20048;-86
2022/10/15 10:44:55;;;;;;;0.50;0.50;;;16.40;99.90;;;;;;4977510;28;20132;-84
2022/10/15 10:47:48;;;;;;;0.50;0.50;;;16.30;99.90;;;;;;4972712;28;20067;-87
2022/10/15 10:50:44;;;;;;;0.50;0.50;;;16.70;99.90;;;;;;4976138;28;20133;-84
2022/10/15 10:53:50;;;;;;;0.50;0.50;;;16.90;99.90;;;;;;4954051;28;20055;-84
2022/10/15 10:56:29;;;;;;;0.50;0.50;;;16.60;99.90;;;;;;4969953;28;20372;-85
2022/10/15 10:59:00;;;;;;;0.50;0.50;;;16.50;99.90;;;;;;4975424;28;20466;-85
2022/10/15 11:01:28;;;;;;;0.50;0.50;;;16.00;99.90;;;;;;5013765;28;20219;-84
2022/10/15 11:03:54;;;;;;;0.50;0.50;;;15.70;99.90;;;;;;4977507;28;20113;-86
2022/10/15 11:06:59;;;;;;;0.50;0.50;;;15.70;99.90;;;;;;4976913;28;20558;-86
2022/10/15 11:09:40;;;;;;;0.50;0.50;;;15.90;99.90;;;;;;4980790;28;20048;-85
2022/10/15 11:13:02;;;;;;;0.50;0.50;;;15.90;99.90;;;;;;4987284;28;20052;-87
2022/10/15 11:16:06;;;;;;;0.57;0.57;;;15.80;99.90;;;;;;5009088;28;20381;-84
2022/10/15 11:18:54;;;;;;;0.50;0.50;;;15.90;99.90;;;;;;4989354;28;20812;-82
2022/10/15 11:21:47;;;;;;;0.50;0.50;;;15.90;99.90;;;;;;4983321;28;20399;-85
2022/10/15 11:24:27;;;;;;;0.50;0.50;;;15.80;99.90;;;;;;4980758;28;20064;-85
2022/10/15 11:27:14;;;;;;;0.50;0.50;;;15.80;99.90;;;;;;4991416;28;20044;-86
2022/10/15 11:29:43;;;;;;;0.50;0.50;;;15.80;99.90;;;;;;4993685;28;20445;-85
2022/10/15 11:32:37;;;;;;;0.50;0.50;;;15.90;99.90;;;;;;4989974;28;20044;-84
2022/10/15 11:35:51;;;;;;;0.60;0.60;;;16.00;99.90;;;;;;5015823;28;20417;-82
2022/10/15 11:38:43;;;;;;;0.50;0.50;;;15.90;99.90;;;;;;4979008;28;20044;-83
2022/10/15 11:41:21;;;;;;;0.50;0.50;;;15.90;99.90;;;;;;4976154;28;20039;-84
2022/10/15 11:44:11;;;;;;;0.50;0.50;;;16.00;99.90;;;;;;4986758;28;20185;-85
2022/10/15 11:46:55;;;;;;;0.50;0.50;;;16.30;99.90;;;;;;4978729;28;20058;-85
2022/10/15 11:49:28;;;;;;;;;;;16.60;99.90;;;;;;4976002;28;20803;-86
2022/10/15 11:52:39;;;;;;;;;;;;;;;;;;;;;
2022/10/15 11:55:44;;;;;;;0.55;0.55;;;17.00;99.90;;;;;;4995954;28;20126;-86
2022/10/15 11:58:55;;;;;;;0.50;0.50;;;16.70;99.90;;;;;;4983046;28;20776;-84
2022/10/15 12:01:40;;;;;;;0.50;0.50;;;16.50;99.90;;;;;;4992494;28;20049;-83
2022/10/15 12:04:48;;;;;;;;;;;;;;;;;;;;;
2022/10/15 12:08:05;;;;;;;0.50;0.50;;;16.20;99.90;;;;;;5005411;28;20408;-92
2022/10/15 12:11:09;;;;;;;0.50;0.50;;;16.20;99.90;;;;;;4988323;28;20047;-88
2022/10/15 12:14:13;;;;;;;0.50;0.50;;;16.10;99.90;;;;;;4985706;28;20039;-86
2022/10/15 12:17:30;;;;;;;0.50;0.50;;;16.10;99.90;;;;;;4985759;28;20044;-87
2022/10/15 12:20:25;;;;;;;0.50;0.50;;;16.00;99.90;;;;;;4961220;28;20353;-88
2022/10/15 12:23:35;;;;;;;0.50;0.50;;;16.00;99.90;;;;;;5008014;28;20622;-87
2022/10/15 12:26:41;;;;;;;0.50;0.50;;;16.00;99.90;;;;;;4928630;28;20050;-86
2022/10/15 12:29:42;;;;;;;0.50;0.50;;;16.00;99.90;;;;;;4929377;28;20061;-90
2022/10/15 12:36:38;;;;;;;0.50;0.50;;;16.00;99.90;;;;;;4851134;29;20048;-88
2022/10/15 12:42:40;;;;;;;;;;;;;;;;;;;;;
2022/10/15 12:45:42;;;;;;;0.50;0.50;;;15.90;99.90;;;;;;4882072;28;20446;-90
2022/10/15 12:48:26;;;;;;;0.50;0.50;;;15.90;99.90;;;;;;4872986;28;20060;-88
2022/10/15 12:51:23;;;;;;;0.50;0.50;;;15.90;99.90;;;;;;4915619;28;20180;-87
2022/10/15 12:54:00;;;;;;;0.60;0.60;;;16.00;99.90;;;;;;4928119;28;20457;-85
2022/10/15 12:56:47;;;;;;;0.50;0.50;;;16.00;99.90;;;;;;4916434;28;20114;-87
2022/10/15 13:00:08;;;;;;;;;;;;;;;;;;;;;
2022/10/15 13:02:59;;;;;;;;;;;;;;;;;;;;;
2022/10/15 13:05:54;;;;;;;0.50;0.50;;;15.90;99.90;;;;;;4957795;28;20072;-88
2022/10/15 13:08:33;;;;;;;0.50;0.50;;;15.90;99.90;;;;;;4949927;28;20053;-88
2022/10/15 13:11:17;;;;;;;0.50;0.50;;;16.00;99.90;;;;;;4967948;28;20037;-89
2022/10/15 13:14:15;;;;;;;0.50;0.50;;;16.10;99.90;;;;;;4951426;28;20090;-90
2022/10/15 13:23:17;;;;;;;0.50;0.50;;;16.00;99.90;;;;;;4911657;28;20054;-93
2022/10/15 13:26:17;;;;;;;0.50;0.50;;;15.90;99.90;;;;;;4867502;28;20600;-93
2022/10/15 13:29:26;;;;;;;0.50;0.50;;;15.90;99.90;;;;;;4951026;28;20718;-93
2022/10/15 13:32:38;;;;;;;0.50;0.50;;;16.10;99.90;;;;;;4952374;28;20602;-90
2022/10/15 13:35:16;;;;;;;0.50;0.50;;;16.00;99.90;;;;;;4949321;28;20111;-94
2022/10/15 13:38:10;;;;;;;0.50;0.50;;;15.90;99.90;;;;;;4937185;28;20156;-89
2022/10/15 13:41:04;;;;;;;0.50;0.50;;;15.90;99.90;;;;;;4911173;28;20053;-92
2022/10/15 13:44:22;;;;;;;0.50;0.50;;;16.00;99.90;;;;;;4949621;28;20878;-92
2022/10/15 13:50:37;;;;;;;0.50;0.50;;;15.90;99.90;;;;;;4862535;29;20060;-86
2022/10/15 13:53:29;;;;;;;0.50;0.50;;;16.00;99.90;;;;;;4833720;29;20070;-93
2022/10/15 13:56:56;;;;;;;;;;;;;;;;;;;;;
2022/10/15 14:00:08;;;;;;;0.50;0.50;;;16.20;99.90;;;;;;4868348;28;20148;-95
2022/10/15 14:06:52;;;;;;;0.50;0.50;;;16.30;99.90;;;;;;4809201;29;20516;-88
2022/10/15 14:13:50;;;;;;;0.50;0.50;;;16.30;99.90;;;;;;4809732;29;20331;-94
2022/10/15 14:21:12;;;;;;;0.50;0.50;;;16.30;99.90;;;;;;4820662;29;20093;-96
2022/10/15 14:34:12;;;;;;;0.50;0.50;;;16.50;99.90;;;;;;4791435;29;20250;-92
2022/10/15 14:41:30;;;;;;;0.50;0.50;;;16.40;99.90;;;;;;4844805;29;20058;-91
2022/10/15 14:44:05;;;;;;;0.50;0.50;;;16.50;99.90;;;;;;4857418;29;20055;-94
2022/10/15 14:53:38;;;;;;;0.50;0.50;;;16.60;99.90;;;;;;4879913;29;20835;-96
2022/10/15 15:06:58;;;;;;;0.50;0.50;;;16.50;99.90;;;;;;4857621;29;20061;-91
2022/10/15 15:12:57;;;;;;;0.45;0.45;;;16.50;99.90;;;;;;4799989;29;20359;-89
2022/10/15 15:18:22;;;;;;;0.50;0.50;;;16.50;99.90;;;;;;4844504;29;20056;-88
2022/10/15 15:24:13;;;;;;;0.50;0.50;;;16.40;99.90;;;;;;4819689;29;20090;-90
2022/10/15 15:27:07;;;;;;;;;;;;;;;;;;;;;
2022/10/15 15:32:46;;;;;;;;;;;16.50;99.90;;;;;;4809814;29;20159;-90
2022/10/15 15:36:54;;;;;;;0.50;0.50;;;16.40;99.90;;;;;;4805509;29;19924;-91
2022/10/15 15:39:18;;;;;;;0.40;0.40;;;16.40;99.90;;;;;;4829980;29;20052;-89
2022/10/15 15:41:50;;;;;;;0.45;0.45;;;16.40;99.90;;;;;;4850250;29;20439;-89
2022/10/15 15:44:18;;;;;;;0.50;0.50;;;16.40;99.90;;;;;;4916134;28;20866;-90
2022/10/15 15:46:54;;;;;;;0.50;0.50;;;16.30;99.90;;;;;;4920696;28;20451;-89
2022/10/15 15:49:25;;;;;;;0.50;0.50;;;16.40;99.90;;;;;;4941618;28;20885;-87
2022/10/15 15:52:03;;;;;;;0.45;0.45;;;16.30;99.90;;;;;;4948746;28;20045;-87
2022/10/15 15:54:56;;;;;;;0.50;0.50;;;16.30;99.90;;;;;;4975010;28;20056;-90
2022/10/15 15:57:45;;;;;;;0.50;0.50;;;16.20;99.90;;;;;;5004379;28;20485;-90